Time;durP1;ratioP1;P1;durP2;ratioP2;P2;SDS_P1;SDS_P2;PMS_P1;PMS_P2;Temp;Humidity;BMP_temperature;BMP_pressure;BME280_temperature;BME280_humidity;BME280_pressure;Samples;Min_cycle;Max_cycle;Signal;HPM_P1;HPM_P2
2023/05/17 00:00:31;;;;;;;;;;;;;;;9.20;100.00;102364.00;10543165;28;19971;-69
2023/05/17 00:05:33;;;;;;;;;;;;;;;9.06;100.00;102364.34;10542165;28;20283;-68
2023/05/17 00:10:36;;;;;;;;;;;;;;;9.07;100.00;102372.16;10580820;28;20312;-68
2023/05/17 00:15:38;;;;;;;;;;;;;;;8.95;100.00;102375.09;10582847;28;20285;-68
2023/05/17 00:20:40;;;;;;;;;;;;;;;8.97;100.00;102375.91;10569868;28;20375;-69
2023/05/17 00:25:43;;;;;;;;;;;;;;;8.70;100.00;102365.25;10542072;28;19930;-69
2023/05/17 00:30:45;;;;;;;;;;;;;;;8.74;100.00;102364.28;10541966;28;19928;-68
2023/05/17 00:35:47;;;;;;;;;;;;;;;8.81;100.00;102353.69;10555557;28;20362;-68
2023/05/17 00:40:49;;;;;;;;;;;;;;;8.85;100.00;102363.16;10583239;28;19924;-68
2023/05/17 00:45:52;;;;;;;;;;;;;;;8.85;100.00;102358.78;10583218;28;19930;-68
2023/05/17 00:50:54;;;;;;;;;;;;;;;8.84;100.00;102361.44;10572929;28;20263;-67
2023/05/17 00:55:57;;;;;;;;;;;;;;;8.86;100.00;102362.25;10564541;28;19924;-67
2023/05/17 01:01:00;;;;;;;;;;;;;;;8.85;100.00;102365.78;10582455;28;19946;-68
2023/05/17 01:06:02;;;;;;;;;;;;;;;8.81;100.00;102357.16;10562846;28;20019;-67
2023/05/17 01:11:23;;;;;;;;;;;;;;;8.70;100.00;102362.63;10582226;28;20401;-67
2023/05/17 01:16:25;;;;;;;;;;;;;;;8.63;100.00;102352.41;10582802;28;19924;-67
2023/05/17 01:21:46;;;;;;;;;;;;;;;8.68;100.00;102355.75;10538431;28;20397;-68
2023/05/17 01:26:49;;;;;;;;;;;;;;;8.79;100.00;102364.16;10540418;28;19931;-68
2023/05/17 01:31:51;;;;;;;;;;;;;;;8.73;100.00;102352.13;10523649;28;20409;-67
2023/05/17 01:36:53;;;;;;;;;;;;;;;8.87;100.00;102349.16;10563730;28;19924;-67
2023/05/17 01:42:00;;;;;;;;;;;;;;;8.63;100.00;102349.78;10581357;28;20397;-68
2023/05/17 01:47:06;;;;;;;;;;;;;;;8.77;100.00;102352.06;10562035;28;19931;-68
2023/05/17 01:52:11;;;;;;;;;;;;;;;8.63;100.00;102361.06;10582490;28;19923;-68
2023/05/17 01:57:13;;;;;;;;;;;;;;;8.64;100.00;102364.53;10567828;28;19924;-68
2023/05/17 02:02:16;;;;;;;;;;;;;;;8.64;100.00;102365.41;10587981;28;19924;-68
2023/05/17 02:07:18;;;;;;;;;;;;;;;8.59;100.00;102364.66;10589299;28;20413;-68
2023/05/17 02:12:20;;;;;;;;;;;;;;;8.54;100.00;102359.56;10588935;28;19930;-68
2023/05/17 02:17:23;;;;;;;;;;;;;;;8.58;100.00;102364.72;10586637;28;20389;-68
2023/05/17 02:22:25;;;;;;;;;;;;;;;8.84;100.00;102366.66;10589336;28;19971;-68
2023/05/17 02:27:27;;;;;;;;;;;;;;;8.85;100.00;102369.25;10589014;28;19924;-68
2023/05/17 02:32:30;;;;;;;;;;;;;;;9.09;100.00;102366.91;10587062;28;20405;-68
2023/05/17 02:37:33;;;;;;;;;;;;;;;9.03;100.00;102373.16;10588478;28;19977;-68
2023/05/17 02:42:35;;;;;;;;;;;;;;;9.18;100.00;102382.34;10587642;28;20366;-67
2023/05/17 02:47:37;;;;;;;;;;;;;;;9.25;100.00;102378.66;10562256;28;19967;-68
2023/05/17 02:52:40;;;;;;;;;;;;;;;9.29;100.00;102385.50;10587657;28;19924;-67
2023/05/17 02:57:42;;;;;;;;;;;;;;;9.36;100.00;102390.59;10548865;28;19924;-68
2023/05/17 03:02:44;;;;;;;;;;;;;;;9.40;100.00;102392.25;10545252;28;19924;-67
2023/05/17 03:07:47;;;;;;;;;;;;;;;9.64;100.00;102399.38;10549925;28;19924;-67
2023/05/17 03:12:50;;;;;;;;;;;;;;;9.46;100.00;102411.22;10585153;28;20282;-68
2023/05/17 03:17:52;;;;;;;;;;;;;;;9.57;100.00;102407.47;10587020;28;19924;-67
2023/05/17 03:22:54;;;;;;;;;;;;;;;9.58;100.00;102412.66;10586099;28;20030;-67
2023/05/17 03:27:56;;;;;;;;;;;;;;;9.50;100.00;102419.84;10545398;28;19931;-67
2023/05/17 03:32:59;;;;;;;;;;;;;;;9.67;100.00;102427.22;10544194;28;20010;-68
2023/05/17 03:38:01;;;;;;;;;;;;;;;10.08;100.00;102435.66;10544003;28;19969;-67
2023/05/17 03:43:03;;;;;;;;;;;;;;;9.88;100.00;102453.69;10581124;28;19924;-67
2023/05/17 03:48:05;;;;;;;;;;;;;;;9.95;100.00;102452.59;10585791;28;19927;-67
2023/05/17 03:53:08;;;;;;;;;;;;;;;9.96;100.00;102449.94;10585237;28;19924;-67
2023/05/17 03:58:10;;;;;;;;;;;;;;;9.93;100.00;102455.25;10582674;28;20286;-67
2023/05/17 04:03:12;;;;;;;;;;;;;;;9.88;100.00;102451.91;10583942;28;19928;-67
2023/05/17 04:08:17;;;;;;;;;;;;;;;9.91;100.00;102443.13;10571965;22;19938;-66
2023/05/17 04:13:20;;;;;;;;;;;;;;;9.76;100.00;102449.66;10583828;28;19930;-67
2023/05/17 04:18:22;;;;;;;;;;;;;;;9.81;100.00;102471.31;10584185;28;19931;-66
2023/05/17 04:23:25;;;;;;;;;;;;;;;9.83;100.00;102473.00;10584324;28;19924;-66
2023/05/17 04:28:27;;;;;;;;;;;;;;;9.87;100.00;102479.00;10583013;28;20373;-66
2023/05/17 04:33:29;;;;;;;;;;;;;;;9.93;100.00;102486.66;10583284;28;20014;-66
2023/05/17 04:38:32;;;;;;;;;;;;;;;10.28;100.00;102486.56;10551505;28;19946;-66
2023/05/17 04:43:34;;;;;;;;;;;;;;;10.12;100.00;102496.59;10582734;28;19924;-66
2023/05/17 04:48:37;;;;;;;;;;;;;;;10.03;100.00;102498.56;10564752;28;19927;-66
2023/05/17 04:53:40;;;;;;;;;;;;;;;9.95;100.00;102497.97;10583407;28;19924;-66
2023/05/17 04:58:42;;;;;;;;;;;;;;;9.99;100.00;102506.59;10581827;28;19924;-66
2023/05/17 05:03:44;;;;;;;;;;;;;;;9.82;100.00;102518.34;10583089;28;19924;-66
2023/05/17 05:08:47;;;;;;;;;;;;;;;9.83;100.00;102521.81;10582230;28;20382;-66
2023/05/17 05:13:49;;;;;;;;;;;;;;;9.73;100.00;102521.19;10580401;28;19924;-66
2023/05/17 05:18:51;;;;;;;;;;;;;;;9.69;100.00;102537.03;10582709;28;19924;-66
2023/05/17 05:23:53;;;;;;;;;;;;;;;9.68;100.00;102528.31;10582507;28;19924;-66
2023/05/17 05:28:56;;;;;;;;;;;;;;;9.94;100.00;102542.47;10580506;28;20389;-66
2023/05/17 05:33:59;;;;;;;;;;;;;;;9.96;100.00;102543.28;10589700;28;19924;-66
2023/05/17 05:39:02;;;;;;;;;;;;;;;9.98;100.00;102550.19;10587974;28;20358;-66
2023/05/17 05:44:04;;;;;;;;;;;;;;;10.22;100.00;102548.66;10589294;28;19923;-67
2023/05/17 05:49:07;;;;;;;;;;;;;;;10.48;100.00;102554.94;10589924;28;19928;-66
2023/05/17 05:54:09;;;;;;;;;;;;;;;10.41;100.00;102553.41;10558380;28;19924;-67
2023/05/17 05:59:12;;;;;;;;;;;;;;;10.27;100.00;102566.88;10557330;28;20270;-66
2023/05/17 06:04:14;;;;;;;;;;;;;;;10.67;100.00;102568.34;10587161;28;20404;-69
2023/05/17 06:09:16;;;;;;;;;;;;;;;10.32;100.00;102577.22;10589408;28;19928;-64
2023/05/17 06:14:19;;;;;;;;;;;;;;;10.82;100.00;102589.78;10589000;28;19931;-64
2023/05/17 06:19:21;;;;;;;;;;;;;;;10.50;98.81;102594.19;10588241;28;20266;-64
2023/05/17 06:24:23;;;;;;;;;;;;;;;10.66;100.00;102586.75;10544258;28;19924;-64
2023/05/17 06:29:25;;;;;;;;;;;;;;;11.19;98.73;102604.38;10546270;28;19924;-64
2023/05/17 06:34:28;;;;;;;;;;;;;;;10.86;97.89;102605.38;10564934;28;19924;-64
2023/05/17 06:39:30;;;;;;;;;;;;;;;10.68;97.88;102609.38;10586693;28;20374;-64
2023/05/17 06:44:32;;;;;;;;;;;;;;;10.78;97.22;102613.44;10587306;28;20032;-64
2023/05/17 06:49:35;;;;;;;;;;;;;;;11.43;94.64;102608.88;10587630;28;20358;-64
2023/05/17 06:54:38;;;;;;;;;;;;;;;12.00;89.26;102606.13;10573056;28;20465;-64
2023/05/17 06:59:40;;;;;;;;;;;;;;;12.43;86.84;102607.25;10586227;28;20374;-64
2023/05/17 07:04:42;;;;;;;;;;;;;;;12.05;86.34;102609.44;10587472;28;19931;-64
2023/05/17 07:09:44;;;;;;;;;;;;;;;11.37;85.21;102614.28;10586500;28;20338;-64
2023/05/17 07:14:47;;;;;;;;;;;;;;;12.66;82.36;102614.28;10584547;28;19927;-64
2023/05/17 07:19:49;;;;;;;;;;;;;;;13.19;78.65;102624.50;10579895;28;19924;-64
2023/05/17 07:24:52;;;;;;;;;;;;;;;13.11;78.15;102631.84;10554705;28;20329;-64
2023/05/17 07:29:54;;;;;;;;;;;;;;;14.15;75.62;102628.50;10586540;28;19930;-64
2023/05/17 07:34:57;;;;;;;;;;;;;;;13.08;77.34;102645.13;10583407;28;20404;-64
2023/05/17 07:39:59;;;;;;;;;;;;;;;12.63;78.74;102644.16;10586168;28;19930;-64
2023/05/17 07:45:01;;;;;;;;;;;;;;;12.58;78.95;102647.88;10583963;28;20298;-64
2023/05/17 07:50:04;;;;;;;;;;;;;;;13.91;72.63;102638.31;10567024;28;19924;-64
2023/05/17 07:55:06;;;;;;;;;;;;;;;13.31;72.33;102656.50;10584883;28;19974;-64
2023/05/17 08:00:11;;;;;;;;;;;;;;;12.52;73.84;102651.56;10583986;28;20393;-64
2023/05/17 08:05:13;;;;;;;;;;;;;;;14.23;72.19;102663.28;10584517;28;19923;-64
2023/05/17 08:10:15;;;;;;;;;;;;;;;13.27;70.28;102665.44;10584497;28;19924;-64
2023/05/17 08:15:18;;;;;;;;;;;;;;;14.11;70.15;102661.19;10582155;28;20014;-64
2023/05/17 08:20:20;;;;;;;;;;;;;;;14.66;69.39;102656.16;10562020;28;19924;-64
2023/05/17 08:25:23;;;;;;;;;;;;;;;14.93;66.42;102658.44;10584455;28;19923;-64
2023/05/17 08:30:25;;;;;;;;;;;;;;;13.86;67.13;102659.56;10565050;28;19924;-64
2023/05/17 08:35:30;;;;;;;;;;;;;;;13.84;67.19;102665.84;10583494;28;20382;-64
2023/05/17 08:40:36;;;;;;;;;;;;;;;13.52;68.25;102668.84;10580300;28;20010;-65
2023/05/17 08:45:38;;;;;;;;;;;;;;;13.36;68.58;102667.72;10583690;28;19978;-64
2023/05/17 08:50:41;;;;;;;;;;;;;;;15.54;64.86;102659.94;10580335;28;19930;-64
2023/05/17 08:55:44;;;;;;;;;;;;;;;14.61;63.81;102660.78;10564582;28;19924;-64
2023/05/17 09:00:47;;;;;;;;;;;;;;;14.24;65.52;102675.53;10582122;28;19928;-64
2023/05/17 09:05:51;;;;;;;;;;;;;;;15.52;63.41;102666.25;10564961;28;19930;-64
2023/05/17 09:10:54;;;;;;;;;;;;;;;15.11;60.33;102667.28;10581932;28;19923;-64
2023/05/17 09:15:56;;;;;;;;;;;;;;;17.43;57.50;102677.44;10581693;28;19930;-65
2023/05/17 09:21:05;;;;;;;;;;;;;;;16.57;55.55;102671.53;10562897;28;19939;-65
2023/05/17 09:26:07;;;;;;;;;;;;;;;15.28;58.67;102671.78;10580481;28;19978;-65
2023/05/17 09:31:12;;;;;;;;;;;;;;;16.19;55.15;102669.09;10581269;28;19924;-64
2023/05/17 09:36:18;;;;;;;;;;;;;;;17.26;54.11;102671.31;10582499;28;19931;-64
2023/05/17 09:41:21;;;;;;;;;;;;;;;17.26;54.67;102673.97;10564047;28;19930;-64
2023/05/17 09:46:23;;;;;;;;;;;;;;;18.84;51.03;102668.22;10563521;28;20014;-64
2023/05/17 09:51:33;;;;;;;;;;;;;;;17.86;52.10;102676.78;10582015;28;20003;-64
2023/05/17 09:56:35;;;;;;;;;;;;;;;17.54;51.80;102675.03;10563138;28;20362;-64
2023/05/17 10:01:39;;;;;;;;;;;;;;;16.75;51.86;102672.34;10581832;28;19934;-64
2023/05/17 10:06:43;;;;;;;;;;;;;;;19.11;51.23;102657.66;10563089;28;19923;-64
2023/05/17 10:11:51;;;;;;;;;;;;;;;19.47;48.19;102658.03;10581038;28;19959;-64
2023/05/17 10:16:53;;;;;;;;;;;;;;;18.42;48.07;102663.75;10564352;28;19924;-64
2023/05/17 10:21:57;;;;;;;;;;;;;;;20.54;47.96;102668.50;10571179;28;19930;-64
2023/05/17 10:27:09;;;;;;;;;;;;;;;19.77;45.13;102662.25;10573095;28;20002;-64
2023/05/17 10:32:12;;;;;;;;;;;;;;;19.38;45.48;102663.91;10570178;28;20481;-64
2023/05/17 10:37:14;;;;;;;;;;;;;;;19.41;51.67;102661.06;10588076;28;20359;-64
2023/05/17 10:42:17;;;;;;;;;;;;;;;17.61;49.02;102662.28;10562748;28;19924;-64
2023/05/17 10:47:19;;;;;;;;;;;;;;;18.02;47.14;102661.69;10587753;28;19931;-64
2023/05/17 10:52:24;;;;;;;;;;;;;;;20.38;42.75;102643.94;10568325;28;19924;-64
2023/05/17 10:57:37;;;;;;;;;;;;;;;21.25;44.85;102639.47;10553101;28;20434;-64
2023/05/17 11:02:43;;;;;;;;;;;;;;;22.32;43.36;102634.97;10587082;28;19923;-64
2023/05/17 11:07:45;;;;;;;;;;;;;;;20.59;43.03;102637.09;10587107;28;19971;-64
2023/05/17 11:12:52;;;;;;;;;;;;;;;18.13;44.38;102637.22;10552548;28;19927;-63
2023/05/17 11:17:55;;;;;;;;;;;;;;;19.01;44.32;102631.78;10586418;28;20036;-63
2023/05/17 11:22:59;;;;;;;;;;;;;;;21.61;43.09;102627.06;10564390;28;19975;-64
2023/05/17 11:28:08;;;;;;;;;;;;;;;22.54;40.73;102619.94;10583758;28;19924;-64
2023/05/17 11:33:10;;;;;;;;;;;;;;;21.04;41.22;102625.91;10562395;28;20294;-64
2023/05/17 11:38:29;;;;;;;;;;;;;;;20.67;39.83;102627.75;10548770;28;19923;-64
2023/05/17 11:43:32;;;;;;;;;;;;;;;22.87;39.09;102629.72;10585360;28;19924;-64
2023/05/17 11:48:35;;;;;;;;;;;;;;;22.57;40.15;102617.88;10567383;28;20251;-64
2023/05/17 11:53:37;;;;;;;;;;;;;;;22.56;40.76;102621.53;10565872;28;20297;-64
2023/05/17 11:58:41;;;;;;;;;;;;;;;21.91;42.17;102619.53;10585531;28;20006;-64
2023/05/17 12:03:46;;;;;;;;;;;;;;;21.58;41.32;102621.13;10549191;28;20482;-64
2023/05/17 12:08:48;;;;;;;;;;;;;;;20.96;42.15;102622.97;10583439;28;19928;-65
2023/05/17 12:13:51;;;;;;;;;;;;;;;20.12;45.20;102617.31;10583259;28;19924;-64
2023/05/17 12:18:53;;;;;;;;;;;;;;;19.78;42.98;102611.66;10584635;28;19923;-65
2023/05/17 12:23:55;;;;;;;;;;;;;;;20.82;41.49;102608.00;10583681;28;20267;-65
2023/05/17 12:28:58;;;;;;;;;;;;;;;21.50;41.69;102609.22;10584216;28;19928;-65
2023/05/17 12:34:01;;;;;;;;;;;;;;;21.31;40.51;102616.84;10566023;28;20023;-65
2023/05/17 12:39:07;;;;;;;;;;;;;;;23.16;38.75;102599.81;10583557;28;19924;-65
2023/05/17 12:44:10;;;;;;;;;;;;;;;20.92;37.68;102609.03;10583577;28;19924;-65
2023/05/17 12:49:16;;;;;;;;;;;;;;;18.89;41.00;102614.84;10565594;28;20370;-64
2023/05/17 12:54:26;;;;;;;;;;;;;;;19.14;47.06;102607.97;10564718;28;20310;-64
2023/05/17 12:59:28;;;;;;;;;;;;;;;19.41;40.90;102602.63;10582609;28;20014;-65
2023/05/17 13:04:35;;;;;;;;;;;;;;;21.30;39.31;102599.16;10583005;28;19924;-64
2023/05/17 13:09:45;;;;;;;;;;;;;;;21.27;42.29;102599.41;10582545;28;19924;-64
2023/05/17 13:14:50;;;;;;;;;;;;;;;19.90;41.10;102601.16;10564991;28;19928;-64
2023/05/17 13:19:53;;;;;;;;;;;;;;;20.53;44.14;102594.94;10582785;28;19930;-64
2023/05/17 13:24:55;;;;;;;;;;;;;;;20.34;42.74;102591.88;10581919;28;20259;-64
2023/05/17 13:29:57;;;;;;;;;;;;;;;18.34;43.14;102587.31;10581984;28;20397;-64
2023/05/17 13:35:00;;;;;;;;;;;;;;;20.49;42.16;102587.28;10582029;28;20281;-65
2023/05/17 13:40:03;;;;;;;;;;;;;;;19.53;45.03;102591.19;10582514;28;19924;-65
2023/05/17 13:45:07;;;;;;;;;;;;;;;20.76;39.28;102589.81;10581565;28;19923;-65
2023/05/17 13:50:10;;;;;;;;;;;;;;;21.58;39.60;102578.47;10581619;28;20029;-65
2023/05/17 13:55:13;;;;;;;;;;;;;;;21.84;41.25;102565.81;10589379;28;19923;-64
2023/05/17 14:00:15;;;;;;;;;;;;;;;21.63;39.08;102576.31;10590247;28;19931;-65
2023/05/17 14:05:17;;;;;;;;;;;;;;;21.56;38.88;102583.91;10589297;28;20259;-65
2023/05/17 14:10:20;;;;;;;;;;;;;;;21.79;39.90;102576.81;10589352;28;19924;-65
2023/05/17 14:15:23;;;;;;;;;;;;;;;20.51;42.02;102590.69;10589091;28;19923;-65
2023/05/17 14:20:25;;;;;;;;;;;;;;;21.39;40.12;102587.00;10588822;28;19923;-65
2023/05/17 14:25:27;;;;;;;;;;;;;;;21.48;41.82;102584.47;10589133;28;19924;-64
2023/05/17 14:30:30;;;;;;;;;;;;;;;20.33;42.05;102574.25;10589247;28;19924;-65
2023/05/17 14:35:32;;;;;;;;;;;;;;;21.59;41.65;102591.69;10570262;28;19931;-65
2023/05/17 14:40:35;;;;;;;;;;;;;;;19.97;38.74;102574.06;10588801;28;19931;-65
2023/05/17 14:45:37;;;;;;;;;;;;;;;19.10;44.03;102581.63;10587840;28;19923;-64
2023/05/17 14:50:39;;;;;;;;;;;;;;;18.90;44.31;102588.22;10587562;28;19924;-64
2023/05/17 14:55:42;;;;;;;;;;;;;;;18.22;45.34;102582.78;10587924;28;19924;-65
2023/05/17 15:00:46;;;;;;;;;;;;;;;17.38;47.12;102600.94;10587732;28;19963;-64
2023/05/17 15:05:53;;;;;;;;;;;;;;;17.92;42.34;102591.63;10586673;28;20300;-64
2023/05/17 15:10:56;;;;;;;;;;;;;;;18.74;43.96;102595.41;10568386;28;19924;-64
2023/05/17 15:15:59;;;;;;;;;;;;;;;17.90;46.42;102599.66;10587302;28;19934;-65
2023/05/17 15:21:01;;;;;;;;;;;;;;;17.25;47.22;102592.84;10568451;28;19924;-64
2023/05/17 15:26:03;;;;;;;;;;;;;;;17.04;48.50;102602.84;10586792;28;19923;-66
2023/05/17 15:31:09;;;;;;;;;;;;;;;17.15;47.43;102591.66;10586809;28;19923;-69
2023/05/17 15:36:11;;;;;;;;;;;;;;;17.48;48.21;102595.09;10586422;28;19923;-66
2023/05/17 15:41:15;;;;;;;;;;;;;;;16.87;48.82;102584.41;10586205;28;19931;-66
2023/05/17 15:46:18;;;;;;;;;;;;;;;17.00;49.59;102598.66;10567347;28;19924;-66
2023/05/17 15:51:20;;;;;;;;;;;;;;;18.08;48.04;102581.81;10585330;28;20297;-66
2023/05/17 15:56:23;;;;;;;;;;;;;;;16.58;48.68;102586.84;10567581;28;19924;-66
2023/05/17 16:01:25;;;;;;;;;;;;;;;16.80;50.53;102593.59;10585311;28;19924;-66
2023/05/17 16:06:33;;;;;;;;;;;;;;;15.82;51.32;102586.44;10567465;28;20394;-66
2023/05/17 16:11:35;;;;;;;;;;;;;;;17.67;49.99;102590.44;10582316;28;19924;-66
2023/05/17 16:16:38;;;;;;;;;;;;;;;16.38;50.03;102593.22;10582344;28;19928;-66
2023/05/17 16:21:41;;;;;;;;;;;;;;;17.25;48.28;102590.19;10585401;28;19931;-67
2023/05/17 16:26:43;;;;;;;;;;;;;;;17.03;47.82;102593.22;10550721;22;19924;-69
2023/05/17 16:31:46;;;;;;;;;;;;;;;16.85;46.03;102595.06;10523725;28;19924;-69
2023/05/17 16:36:49;;;;;;;;;;;;;;;16.89;48.95;102594.00;10524909;28;19924;-64
2023/05/17 16:41:53;;;;;;;;;;;;;;;17.91;47.50;102589.94;10542407;28;19963;-65
2023/05/17 16:46:55;;;;;;;;;;;;;;;16.92;47.03;102589.47;10542013;28;19924;-65
2023/05/17 16:51:58;;;;;;;;;;;;;;;16.70;46.69;102601.19;10541479;28;20018;-65
2023/05/17 16:57:05;;;;;;;;;;;;;;;15.74;49.27;102613.22;10540629;28;20301;-65
2023/05/17 17:02:09;;;;;;;;;;;;;;;15.41;50.50;102616.59;10540968;28;19925;-65
2023/05/17 17:07:11;;;;;;;;;;;;;;;16.10;48.42;102613.16;10540974;28;19924;-65
2023/05/17 17:12:13;;;;;;;;;;;;;;;15.41;49.92;102614.81;10538193;28;20405;-63
2023/05/17 17:17:25;;;;;;;;;;;;;;;14.93;50.99;102621.53;10540601;28;19924;-64
2023/05/17 17:22:27;;;;;;;;;;;;;;;15.54;50.30;102624.78;10540163;28;19956;-64
2023/05/17 17:27:30;;;;;;;;;;;;;;;15.64;49.77;102625.19;10544504;28;20388;-64
2023/05/17 17:32:32;;;;;;;;;;;;;;;15.37;49.83;102622.97;10548919;28;19931;-64
2023/05/17 17:37:35;;;;;;;;;;;;;;;15.20;48.92;102632.56;10549022;28;19978;-64
2023/05/17 17:42:37;;;;;;;;;;;;;;;14.56;48.40;102631.09;10548489;28;19925;-64
2023/05/17 17:47:40;;;;;;;;;;;;;;;14.95;50.62;102634.66;10548171;28;19952;-64
2023/05/17 17:52:43;;;;;;;;;;;;;;;14.64;50.43;102636.03;10547748;28;20289;-65
2023/05/17 17:57:45;;;;;;;;;;;;;;;14.75;50.57;102636.41;10548322;28;19931;-64
2023/05/17 18:02:48;;;;;;;;;;;;;;;14.66;50.73;102640.34;10548042;28;19924;-64
2023/05/17 18:07:51;;;;;;;;;;;;;;;14.23;51.62;102631.66;10547825;28;19928;-64
2023/05/17 18:12:53;;;;;;;;;;;;;;;14.39;52.84;102638.88;10547618;28;19931;-64
2023/05/17 18:17:55;;;;;;;;;;;;;;;14.03;53.17;102640.41;10546860;28;20271;-63
2023/05/17 18:22:58;;;;;;;;;;;;;;;13.67;54.04;102648.94;10546961;28;19924;-63
2023/05/17 18:28:00;;;;;;;;;;;;;;;14.00;54.38;102647.59;10546331;28;20382;-64
2023/05/17 18:33:02;;;;;;;;;;;;;;;13.43;54.03;102642.03;10546206;28;19924;-64
2023/05/17 18:38:05;;;;;;;;;;;;;;;13.83;55.47;102650.94;10545345;28;20015;-64
2023/05/17 18:43:07;;;;;;;;;;;;;;;13.33;56.63;102644.19;10546404;28;20011;-64
2023/05/17 18:48:09;;;;;;;;;;;;;;;13.43;56.97;102652.56;10546258;28;19968;-64
2023/05/17 18:53:11;;;;;;;;;;;;;;;13.03;57.92;102654.97;10546212;28;19924;-64
2023/05/17 18:58:14;;;;;;;;;;;;;;;12.57;59.93;102654.03;10545255;28;19927;-64
2023/05/17 19:03:16;;;;;;;;;;;;;;;12.34;59.13;102660.97;10545506;28;20277;-64
2023/05/17 19:08:19;;;;;;;;;;;;;;;12.53;60.24;102655.06;10544864;28;19924;-64
2023/05/17 19:13:21;;;;;;;;;;;;;;;12.69;60.03;102671.97;10544600;28;19972;-64
2023/05/17 19:18:23;;;;;;;;;;;;;;;12.18;61.45;102675.53;10545109;28;19924;-64
2023/05/17 19:23:26;;;;;;;;;;;;;;;12.22;61.27;102679.75;10543927;28;19924;-64
2023/05/17 19:28:30;;;;;;;;;;;;;;;12.15;61.60;102683.50;10544012;28;20283;-64
2023/05/17 19:33:33;;;;;;;;;;;;;;;11.78;61.43;102690.78;10543775;28;19924;-64
2023/05/17 19:38:35;;;;;;;;;;;;;;;11.82;61.81;102704.72;10543448;28;20379;-64
2023/05/17 19:43:37;;;;;;;;;;;;;;;11.75;62.99;102708.41;10543292;28;19924;-64
2023/05/17 19:48:40;;;;;;;;;;;;;;;11.54;64.02;102700.31;10549205;28;20379;-64
2023/05/17 19:53:42;;;;;;;;;;;;;;;11.41;64.96;102707.69;10542438;28;19931;-64
2023/05/17 19:58:54;;;;;;;;;;;;;;;11.39;64.49;102703.41;10541931;28;20445;-64
2023/05/17 20:03:56;;;;;;;;;;;;;;;11.02;67.03;102704.50;10541977;28;20359;-64
2023/05/17 20:08:58;;;;;;;;;;;;;;;11.20;66.23;102709.22;10542426;28;20290;-64
2023/05/17 20:14:00;;;;;;;;;;;;;;;11.10;66.26;102707.75;10542166;28;20279;-64
2023/05/17 20:19:02;;;;;;;;;;;;;;;10.87;66.76;102711.03;10542687;28;19925;-64
2023/05/17 20:24:05;;;;;;;;;;;;;;;10.84;67.01;102705.88;10524049;28;19971;-64
2023/05/17 20:29:08;;;;;;;;;;;;;;;10.95;66.34;102709.06;10542277;28;19926;-64
2023/05/17 20:34:10;;;;;;;;;;;;;;;10.56;67.17;102706.66;10542177;28;19928;-64
2023/05/17 20:39:14;;;;;;;;;;;;;;;10.59;67.79;102704.81;10541836;28;19924;-64
2023/05/17 20:44:17;;;;;;;;;;;;;;;10.47;67.42;102704.25;10540881;28;20367;-63
2023/05/17 20:49:19;;;;;;;;;;;;;;;10.15;69.27;102712.00;10540939;28;20370;-63
2023/05/17 20:54:24;;;;;;;;;;;;;;;10.06;69.13;102711.41;10541187;28;19925;-63
2023/05/17 20:59:26;;;;;;;;;;;;;;;10.04;70.49;102712.28;10541164;28;19931;-63
2023/05/17 21:04:29;;;;;;;;;;;;;;;9.74;71.42;102711.25;10540735;28;19924;-63
2023/05/17 21:09:32;;;;;;;;;;;;;;;9.95;70.26;102715.13;10539057;28;19931;-63
2023/05/17 21:14:34;;;;;;;;;;;;;;;10.15;69.07;102719.84;10538928;28;19930;-63
2023/05/17 21:19:37;;;;;;;;;;;;;;;9.58;71.58;102725.56;10538338;28;19924;-63
2023/05/17 21:24:39;;;;;;;;;;;;;;;9.35;72.02;102731.34;10539648;28;20389;-63
2023/05/17 21:29:41;;;;;;;;;;;;;;;9.63;71.48;102726.34;10539747;28;20397;-63
2023/05/17 21:34:44;;;;;;;;;;;;;;;9.39;72.82;102731.22;10547691;28;20379;-64
2023/05/17 21:39:46;;;;;;;;;;;;;;;9.38;73.91;102737.34;10537900;28;20007;-64
2023/05/17 21:44:48;;;;;;;;;;;;;;;9.16;72.85;102736.91;10539274;28;20367;-64
2023/05/17 21:49:50;;;;;;;;;;;;;;;9.08;73.39;102736.22;10539486;28;20367;-64
2023/05/17 21:54:53;;;;;;;;;;;;;;;9.22;72.35;102735.94;10537989;28;19931;-64
2023/05/17 21:59:55;;;;;;;;;;;;;;;9.22;72.81;102728.09;10539316;28;19924;-64
2023/05/17 22:04:57;;;;;;;;;;;;;;;9.10;72.94;102732.69;10538332;28;20019;-64
2023/05/17 22:09:59;;;;;;;;;;;;;;;8.93;73.03;102726.94;10539746;28;19999;-64
2023/05/17 22:15:02;;;;;;;;;;;;;;;9.11;73.97;102734.41;10552904;28;19931;-64
2023/05/17 22:20:08;;;;;;;;;;;;;;;8.93;74.10;102733.03;10545857;28;19930;-64
2023/05/17 22:25:10;;;;;;;;;;;;;;;9.00;74.22;102731.16;10545408;28;19936;-64
2023/05/17 22:30:13;;;;;;;;;;;;;;;8.91;74.18;102732.19;10545978;28;20408;-64
2023/05/17 22:35:15;;;;;;;;;;;;;;;8.60;74.32;102731.06;10553813;28;19924;-64
2023/05/17 22:40:17;;;;;;;;;;;;;;;8.66;75.56;102734.41;10545818;28;19931;-63
2023/05/17 22:45:20;;;;;;;;;;;;;;;8.74;75.39;102735.13;10544655;28;19950;-63
2023/05/17 22:50:23;;;;;;;;;;;;;;;8.64;76.39;102737.94;10566683;28;19924;-64
2023/05/17 22:55:25;;;;;;;;;;;;;;;8.52;75.31;102741.63;10545235;28;20006;-64
2023/05/17 23:00:28;;;;;;;;;;;;;;;8.33;76.30;102738.44;10544339;28;19924;-64
2023/05/17 23:05:32;;;;;;;;;;;;;;;8.42;76.66;102740.03;10544908;28;19939;-64
2023/05/17 23:10:34;;;;;;;;;;;;;;;8.34;77.91;102748.00;10544788;28;19925;-64
2023/05/17 23:15:36;;;;;;;;;;;;;;;8.03;78.93;102750.25;10544302;28;19924;-64
2023/05/17 23:20:39;;;;;;;;;;;;;;;7.85;80.27;102747.03;10543634;28;19924;-64
2023/05/17 23:25:41;;;;;;;;;;;;;;;7.80;80.54;102751.44;10542969;28;19934;-64
2023/05/17 23:30:47;;;;;;;;;;;;;;;7.62;82.65;102755.19;10544652;28;19931;-64
2023/05/17 23:35:49;;;;;;;;;;;;;;;7.47;83.15;102764.06;10543458;28;19924;-64
2023/05/17 23:40:52;;;;;;;;;;;;;;;7.61;82.50;102762.09;10544243;28;19924;-64
2023/05/17 23:45:54;;;;;;;;;;;;;;;7.48;83.08;102755.38;10541205;28;19924;-64
2023/05/17 23:50:56;;;;;;;;;;;;;;;7.17;84.91;102752.28;10564709;28;19924;-64
2023/05/17 23:55:59;;;;;;;;;;;;;;;7.10;85.13;102745.41;10542907;28;19924;-64
